Terminal Aerodrome Forecast
Issued by NWS Billings, MT

Home | Current Version | Previous Version | Text Only | Print | Product List | Glossary On
Versions: 1 2 3 4 5 6 7 8 9 10 11 12 13
000
FTUS45 KBYZ 101724
TAFSHR
TAF
KSHR 101724Z 1018/1118 VRB03KT P6SM SCT080 BKN110
     FM110100 32009KT 2SM -SHSN SCT030 BKN050
     FM110600 30006KT P6SM BKN070
     FM111400 VRB05KT P6SM BKN070=

USA.gov is the U.S. government's official web portal to all federal, state and local government web resources and services.